Terminal Aerodrome Forecast
Issued by NWS

Home | Current Version | Previous Version | Text Only | Print | Product List | Glossary On
Versions: 1 2 3 4 5 6 7 8 9 10 11 12 13 14
000
FTUS43 KPAH 261100
TAFCGI
TAF
KCGI 261128Z 2612/2712 00000KT P6SM SCT200
     FM261400 14005KT P6SM BKN080
     FM261800 08003KT 4SM -RA BR OVC015
     FM270000 30007KT 4SM -RASN OVC012
     FM270300 31007KT 5SM BR OVC020=

USA.gov is the U.S. government's official web portal to all federal, state and local government web resources and services.